Time;durP1;ratioP1;P1;durP2;ratioP2;P2;SDS_P1;SDS_P2;PMS_P1;PMS_P2;Temp;Humidity;BMP_temperature;BMP_pressure;BME280_temperature;BME280_humidity;BME280_pressure;Samples;Min_cycle;Max_cycle;Signal;HPM_P1;HPM_P2
2023/01/15 00:00:21;;;;;;;0.63;0.63;;;;;;;9.57;100.00;97122.44;4132485;28;20201;-49
2023/01/15 00:02:23;;;;;;;0.60;0.60;;;;;;;9.56;100.00;97121.59;4137206;28;20233;-49
2023/01/15 00:04:25;;;;;;;0.95;0.90;;;;;;;9.58;100.00;97116.69;4136110;28;20214;-50
2023/01/15 00:06:27;;;;;;;0.68;0.68;;;;;;;9.57;100.00;97117.81;4134429;28;20301;-50
2023/01/15 00:08:28;;;;;;;0.93;0.90;;;;;;;9.56;100.00;97113.41;4136086;28;20210;-49
2023/01/15 00:10:30;;;;;;;0.70;0.70;;;;;;;9.54;100.00;97114.81;4138957;28;20304;-49
2023/01/15 00:12:32;;;;;;;0.60;0.60;;;;;;;9.57;100.00;97106.06;4137419;28;20233;-50
2023/01/15 00:14:34;;;;;;;0.80;0.80;;;;;;;9.63;100.00;97099.47;4137184;28;20292;-49
2023/01/15 00:16:35;;;;;;;0.70;0.70;;;;;;;9.64;100.00;97085.56;4134637;28;20477;-51
2023/01/15 00:18:37;;;;;;;0.85;0.70;;;;;;;9.61;100.00;97088.81;4134050;28;20229;-49
2023/01/15 00:20:39;;;;;;;0.52;0.52;;;;;;;9.62;100.00;97081.47;4144936;28;20683;-49
2023/01/15 00:22:41;;;;;;;0.52;0.52;;;;;;;9.61;100.00;97090.75;4135486;28;21220;-50
2023/01/15 00:29:24;;;;;;;0.80;0.80;;;;;;;9.64;100.00;97095.66;4135117;28;20300;-48
2023/01/15 00:31:26;;;;;;;0.70;0.70;;;;;;;9.61;100.00;97079.84;4135473;28;20379;-49
2023/01/15 00:33:28;;;;;;;0.60;0.60;;;;;;;9.62;100.00;97086.94;4137755;28;20206;-50
2023/01/15 00:35:30;;;;;;;0.70;0.70;;;;;;;9.61;100.00;97075.16;4119753;28;20214;-49
2023/01/15 00:37:32;;;;;;;0.70;0.70;;;;;;;9.62;100.00;97068.59;4152946;28;20623;-50
2023/01/15 00:39:34;;;;;;;0.60;0.60;;;;;;;9.60;100.00;97084.47;4136117;28;20308;-50
2023/01/15 00:41:38;;;;;;;0.77;0.77;;;;;;;9.64;100.00;97069.16;4136314;28;20226;-50
2023/01/15 00:43:40;;;;;;;1.08;0.73;;;;;;;9.61;100.00;97074.38;4135793;28;20248;-49
2023/01/15 00:45:43;;;;;;;1.48;0.70;;;;;;;9.62;100.00;97073.28;4136122;28;20241;-49
2023/01/15 00:47:47;;;;;;;0.70;0.70;;;;;;;9.59;100.00;97062.88;4136081;28;20233;-51
2023/01/15 00:49:49;;;;;;;0.63;0.63;;;;;;;9.59;100.00;97071.09;4132753;28;20288;-51
2023/01/15 00:51:51;;;;;;;0.80;0.80;;;;;;;9.54;100.00;97068.41;4118042;28;20376;-49
2023/01/15 00:53:52;;;;;;;0.60;0.60;;;;;;;9.57;100.00;97078.75;4132571;28;20241;-49
2023/01/15 00:55:54;;;;;;;0.70;0.70;;;;;;;9.58;100.00;97085.84;4133697;28;20664;-49
2023/01/15 00:57:56;;;;;;;0.50;0.50;;;;;;;9.66;100.00;97077.06;4148802;28;20283;-50
2023/01/15 00:59:57;;;;;;;0.50;0.50;;;;;;;9.64;100.00;97062.88;4137008;28;20699;-50
2023/01/15 01:01:59;;;;;;;0.50;0.50;;;;;;;9.68;100.00;97081.16;4148289;28;20317;-49
2023/01/15 01:04:01;;;;;;;0.75;0.75;;;;;;;9.64;100.00;97077.38;4133930;28;20209;-49
2023/01/15 01:06:04;;;;;;;0.70;0.70;;;;;;;9.65;100.00;97079.00;4135133;28;20324;-50
2023/01/15 01:08:06;;;;;;;0.60;0.60;;;;;;;9.65;100.00;97097.28;4150680;28;20209;-50
2023/01/15 01:10:08;;;;;;;0.73;0.73;;;;;;;9.65;100.00;97089.09;4138979;28;20236;-49
2023/01/15 01:12:10;;;;;;;0.80;0.80;;;;;;;9.65;100.00;97094.53;4137857;28;20264;-48
2023/01/15 01:14:12;;;;;;;0.57;0.57;;;;;;;9.67;100.00;97106.03;4138324;28;20386;-49
2023/01/15 01:16:32;;;;;;;0.68;0.68;;;;;;;9.66;100.00;97115.28;4139644;28;20221;-48
2023/01/15 01:18:34;;;;;;;0.70;0.70;;;;;;;9.65;100.00;97114.50;4138699;28;20221;-50
2023/01/15 01:20:36;;;;;;;0.68;0.68;;;;;;;9.65;100.00;97108.19;4152094;28;20311;-49
2023/01/15 01:22:39;;;;;;;0.80;0.80;;;;;;;9.65;100.00;97108.19;4137559;28;20746;-49
2023/01/15 01:24:41;;;;;;;0.60;0.60;;;;;;;9.58;100.00;97129.53;4138986;28;20217;-49
2023/01/15 01:26:45;;;;;;;0.60;0.60;;;;;;;9.55;100.00;97113.72;4124918;28;20287;-50
2023/01/15 01:28:51;;;;;;;0.60;0.60;;;;;;;9.53;100.00;97116.72;4138407;28;20652;-51
2023/01/15 01:30:54;;;;;;;0.60;0.60;;;;;;;9.55;100.00;97113.72;4134987;28;20198;-49
2023/01/15 01:32:55;;;;;;;0.60;0.60;;;;;;;9.54;100.00;97117.53;4141117;28;20775;-48
2023/01/15 01:34:57;;;;;;;0.70;0.70;;;;;;;9.51;100.00;97110.72;4136598;28;20210;-50
2023/01/15 01:36:59;;;;;;;0.82;0.82;;;;;;;9.47;100.00;97122.44;4126508;28;20202;-51
2023/01/15 01:39:03;;;;;;;0.60;0.60;;;;;;;9.49;100.00;97125.75;4153772;28;20229;-50
2023/01/15 01:41:05;;;;;;;0.60;0.60;;;;;;;9.40;100.00;97127.38;4139083;28;20237;-50
2023/01/15 01:43:26;;;;;;;0.60;0.60;;;;;;;9.34;100.00;97134.78;4137165;28;20243;-49
2023/01/15 01:45:32;;;;;;;1.58;0.50;;;;;;;9.29;100.00;97139.44;4138738;28;20641;-50
2023/01/15 01:47:34;;;;;;;1.00;0.77;;;;;;;9.34;100.00;97144.88;4133705;28;20209;-49
2023/01/15 01:49:39;;;;;;;0.70;0.70;;;;;;;9.20;100.00;97151.97;4139358;28;20292;-48
2023/01/15 01:51:56;;;;;;;0.50;0.50;;;;;;;9.20;100.00;97147.34;4135994;28;20234;-50
2023/01/15 01:53:59;;;;;;;0.52;0.52;;;;;;;9.12;100.00;97152.53;4137543;28;20229;-49
2023/01/15 01:56:01;;;;;;;0.60;0.60;;;;;;;9.08;100.00;97146.00;4149505;28;20291;-49
2023/01/15 01:58:05;;;;;;;0.50;0.50;;;;;;;8.95;100.00;97157.47;4135584;28;20209;-49
2023/01/15 02:00:09;;;;;;;0.60;0.60;;;;;;;9.06;100.00;97164.53;4118580;28;20309;-49
2023/01/15 02:02:12;;;;;;;0.52;0.52;;;;;;;8.95;100.00;97171.09;4135175;28;20229;-49
2023/01/15 02:04:15;;;;;;;0.50;0.50;;;;;;;8.98;100.00;97173.28;4138085;28;20214;-50
2023/01/15 02:06:16;;;;;;;0.57;0.57;;;;;;;8.86;100.00;97173.56;4152027;28;20235;-51
2023/01/15 02:08:18;;;;;;;0.75;0.55;;;;;;;8.94;100.00;97174.94;4136197;28;20245;-49
2023/01/15 02:10:20;;;;;;;0.45;0.45;;;;;;;9.00;100.00;97182.00;4135538;28;20257;-49
2023/01/15 02:12:29;;;;;;;0.60;0.60;;;;;;;8.93;100.00;97178.72;4133985;28;20229;-50
2023/01/15 02:14:42;;;;;;;0.50;0.50;;;;;;;8.91;100.00;97178.19;4136926;28;20296;-50
2023/01/15 02:16:46;;;;;;;0.60;0.60;;;;;;;8.85;100.00;97171.91;4139481;28;20282;-50
2023/01/15 02:18:57;;;;;;;0.50;0.50;;;;;;;8.79;100.00;97180.34;4141788;28;20575;-50
2023/01/15 02:21:06;;;;;;;0.50;0.50;;;;;;;8.77;100.00;97177.09;4137542;28;20230;-49
2023/01/15 02:23:26;;;;;;;0.50;0.50;;;;;;;8.71;100.00;97172.72;4150628;28;20311;-50
2023/01/15 02:25:37;;;;;;;0.77;0.60;;;;;;;8.68;100.00;97176.00;4139308;28;20336;-50
2023/01/15 02:27:45;;;;;;;0.50;0.50;;;;;;;8.67;100.00;97182.50;4137642;28;20303;-52
2023/01/15 02:30:11;;;;;;;0.40;0.40;;;;;;;8.57;100.00;97177.06;4149982;28;20263;-49
2023/01/15 02:32:18;;;;;;;1.45;0.52;;;;;;;8.70;100.00;97182.78;4140618;28;20371;-49
2023/01/15 02:34:22;;;;;;;0.47;0.47;;;;;;;8.63;100.00;97181.44;4138063;28;20209;-49
2023/01/15 02:36:26;;;;;;;3.38;0.63;;;;;;;8.61;100.00;97183.63;4136721;28;20444;-49
2023/01/15 02:38:31;;;;;;;0.40;0.40;;;;;;;8.62;100.00;97179.81;4137052;28;20296;-49
2023/01/15 02:40:34;;;;;;;0.90;0.70;;;;;;;8.63;100.00;97175.97;4134840;28;20229;-49
2023/01/15 02:42:36;;;;;;;0.50;0.50;;;;;;;8.68;100.00;97184.19;4151510;28;20308;-50
2023/01/15 02:44:41;;;;;;;0.60;0.60;;;;;;;8.59;100.00;97188.50;4138850;28;21804;-50
2023/01/15 02:46:44;;;;;;;0.60;0.60;;;;;;;8.69;100.00;97192.06;4138755;28;20227;-49
2023/01/15 02:48:50;;;;;;;0.50;0.50;;;;;;;8.68;100.00;97195.88;4136198;28;20304;-49
2023/01/15 02:50:55;;;;;;;0.63;0.63;;;;;;;8.79;100.00;97203.00;4135989;28;20268;-50
2023/01/15 02:53:04;;;;;;;0.70;0.70;;;;;;;8.74;100.00;97208.44;4137147;28;20309;-49
2023/01/15 02:55:10;;;;;;;0.52;0.52;;;;;;;8.76;100.00;97214.44;4136776;28;20205;-50
2023/01/15 02:57:13;;;;;;;0.60;0.60;;;;;;;8.73;100.00;97209.53;4135276;28;20205;-50
2023/01/15 02:59:26;;;;;;;0.50;0.50;;;;;;;8.61;100.00;97224.53;4151700;28;20332;-50
2023/01/15 03:01:32;;;;;;;0.70;0.70;;;;;;;8.67;100.00;97224.25;4137310;28;20331;-49
2023/01/15 03:03:43;;;;;;;1.17;0.60;;;;;;;8.59;100.00;97223.94;4138951;28;20214;-50
2023/01/15 03:06:10;;;;;;;0.47;0.47;;;;;;;8.56;100.00;97224.50;4138055;28;20216;-50
2023/01/15 03:08:12;;;;;;;0.50;0.50;;;;;;;8.56;100.00;97235.41;4137863;28;20260;-49
2023/01/15 03:10:14;;;;;;;0.52;0.52;;;;;;;8.31;100.00;97238.03;4134802;28;20336;-49
2023/01/15 03:12:26;;;;;;;0.70;0.68;;;;;;;8.41;100.00;97229.91;4136627;28;20228;-49
2023/01/15 03:14:35;;;;;;;0.45;0.45;;;;;;;8.25;100.00;97236.38;4125796;28;20205;-49
2023/01/15 03:16:51;;;;;;;1.08;0.68;;;;;;;8.26;100.00;97225.22;4139539;28;20320;-50
2023/01/15 03:19:35;;;;;;;0.60;0.60;;;;;;;8.29;100.00;97235.56;4137931;28;20205;-50
2023/01/15 03:22:01;;;;;;;0.50;0.50;;;;;;;8.31;100.00;97232.59;4151612;28;20319;-50
2023/01/15 03:24:04;;;;;;;0.52;0.52;;;;;;;8.22;100.00;97245.09;4117442;28;20695;-50
2023/01/15 03:26:06;;;;;;;0.50;0.50;;;;;;;8.22;100.00;97240.44;4135049;28;20219;-50
2023/01/15 03:28:10;;;;;;;0.50;0.50;;;;;;;8.28;100.00;97238.59;4134937;28;20309;-50
2023/01/15 03:30:15;;;;;;;0.70;0.70;;;;;;;8.34;100.00;97229.34;4136329;28;20217;-49
2023/01/15 03:32:17;;;;;;;0.43;0.43;;;;;;;8.32;100.00;97239.66;4136041;28;20240;-50
2023/01/15 03:34:19;;;;;;;0.60;0.60;;;;;;;8.30;100.00;97241.84;4136479;28;20688;-50
2023/01/15 03:36:21;;;;;;;0.60;0.60;;;;;;;8.29;100.00;97240.22;4137768;28;20232;-49
2023/01/15 03:38:28;;;;;;;0.50;0.50;;;;;;;8.32;100.00;97242.41;4138115;28;20751;-53
2023/01/15 03:40:32;;;;;;;0.52;0.52;;;;;;;8.32;100.00;97242.41;4137200;28;20954;-49
2023/01/15 03:42:36;;;;;;;0.70;0.70;;;;;;;8.25;100.00;97250.00;4136667;28;20265;-49
2023/01/15 03:44:53;;;;;;;0.50;0.50;;;;;;;8.23;100.00;97254.91;4138269;28;20213;-49
2023/01/15 03:47:16;;;;;;;0.63;0.63;;;;;;;8.28;100.00;97252.22;4147174;28;20209;-50
2023/01/15 03:49:37;;;;;;;0.50;0.50;;;;;;;8.03;100.00;97246.59;4137156;28;20237;-48
2023/01/15 03:52:05;;;;;;;0.63;0.60;;;;;;;8.00;100.00;97258.00;4135998;28;20233;-50
2023/01/15 03:54:13;;;;;;;0.75;0.75;;;;;;;7.97;100.00;97258.56;4138180;28;20624;-50
2023/01/15 03:56:23;;;;;;;0.52;0.52;;;;;;;7.94;100.00;97259.06;4137024;28;20902;-49
2023/01/15 03:58:36;;;;;;;0.65;0.65;;;;;;;7.87;100.00;97274.81;4136222;28;20351;-49
2023/01/15 04:00:42;;;;;;;0.57;0.57;;;;;;;7.92;100.00;97274.88;4137052;28;20248;-50
2023/01/15 04:02:45;;;;;;;0.45;0.45;;;;;;;7.83;100.00;97285.41;4136990;28;20208;-49
2023/01/15 04:04:50;;;;;;;0.68;0.68;;;;;;;7.62;100.00;97272.75;4136227;28;20204;-50
2023/01/15 04:06:53;;;;;;;0.60;0.60;;;;;;;7.78;100.00;97281.84;4135275;28;20292;-49
2023/01/15 04:08:56;;;;;;;0.60;0.60;;;;;;;7.67;100.00;97274.69;4133359;28;20241;-49
2023/01/15 04:11:00;;;;;;;0.55;0.55;;;;;;;7.57;100.00;97274.63;4134718;28;20210;-49
2023/01/15 04:13:02;;;;;;;0.63;0.63;;;;;;;7.70;100.00;97268.75;4136564;28;20299;-50
2023/01/15 04:15:04;;;;;;;0.63;0.60;;;;;;;7.65;100.00;97276.88;4135422;28;20248;-50
2023/01/15 04:17:06;;;;;;;0.60;0.60;;;;;;;7.58;100.00;97276.28;4135037;28;20304;-50
2023/01/15 04:19:07;;;;;;;0.43;0.43;;;;;;;7.53;100.00;97268.06;4134020;28;20237;-50
2023/01/15 04:21:09;;;;;;;0.60;0.60;;;;;;;7.46;100.00;97278.34;4132741;28;20686;-50
2023/01/15 04:23:11;;;;;;;0.50;0.50;;;;;;;7.40;100.00;97263.06;4134311;28;20212;-50
2023/01/15 04:25:12;;;;;;;0.63;0.63;;;;;;;7.27;100.00;97258.06;4132091;28;20257;-50
2023/01/15 04:27:14;;;;;;;0.70;0.70;;;;;;;7.30;100.00;97265.72;4119886;28;20214;-51
2023/01/15 04:29:16;;;;;;;0.60;0.60;;;;;;;7.24;100.00;97269.47;4136357;28;20245;-50
2023/01/15 04:31:18;;;;;;;0.60;0.60;;;;;;;7.20;100.00;97271.06;4137269;28;20249;-50
2023/01/15 04:33:20;;;;;;;0.55;0.55;;;;;;;7.26;100.00;97283.63;4134397;28;20236;-50
2023/01/15 04:35:22;;;;;;;0.68;0.68;;;;;;;7.34;100.00;97288.59;4132973;28;21215;-50
2023/01/15 04:37:23;;;;;;;0.70;0.70;;;;;;;7.05;100.00;97279.09;4133747;28;20241;-50
2023/01/15 04:39:25;;;;;;;0.75;0.75;;;;;;;6.96;100.00;97283.38;4136129;28;20208;-50
2023/01/15 04:44:06;;;;;;;0.80;0.80;;;;;;;6.92;100.00;97287.66;4136026;28;20292;-50
2023/01/15 04:46:07;;;;;;;0.70;0.70;;;;;;;7.03;100.00;97294.84;4137674;28;20213;-50
2023/01/15 04:48:11;;;;;;;0.60;0.60;;;;;;;6.95;100.00;97311.66;4139167;28;21290;-49
2023/01/15 04:50:13;;;;;;;0.70;0.70;;;;;;;6.75;100.00;97301.38;4153617;28;20231;-50
2023/01/15 04:52:15;;;;;;;0.80;0.80;;;;;;;6.95;100.00;97298.84;4137427;28;20232;-51
2023/01/15 04:54:18;;;;;;;1.10;0.75;;;;;;;6.94;100.00;97307.25;4152946;28;20209;-50
2023/01/15 04:56:20;;;;;;;0.55;0.55;;;;;;;7.01;100.00;97297.00;4154074;28;20653;-49
2023/01/15 04:58:21;;;;;;;0.60;0.60;;;;;;;6.87;100.00;97304.75;4140763;28;20308;-49
2023/01/15 05:00:23;;;;;;;0.73;0.73;;;;;;;6.76;100.00;97299.47;4153269;28;20228;-49
2023/01/15 05:02:25;;;;;;;0.60;0.60;;;;;;;6.70;100.00;97304.03;4139282;28;20308;-50
2023/01/15 05:04:27;;;;;;;1.05;0.60;;;;;;;6.68;100.00;97308.09;4154825;28;20208;-50
2023/01/15 05:06:30;;;;;;;0.60;0.60;;;;;;;6.72;100.00;97320.09;4143392;28;20232;-49
2023/01/15 05:08:32;;;;;;;0.57;0.57;;;;;;;6.68;100.00;97318.97;4139062;28;20853;-49
2023/01/15 05:10:33;;;;;;;0.70;0.70;;;;;;;6.70;100.00;97316.81;4142113;28;20205;-50
2023/01/15 05:12:35;;;;;;;0.70;0.70;;;;;;;6.71;100.00;97323.88;4137735;28;20234;-50
2023/01/15 05:14:37;;;;;;;0.40;0.40;;;;;;;6.80;100.00;97334.03;4138677;28;20224;-50
2023/01/15 05:16:39;;;;;;;0.70;0.70;;;;;;;6.83;100.00;97330.00;4137292;28;20248;-49
2023/01/15 05:18:44;;;;;;;0.93;0.93;;;;;;;6.65;100.00;97327.63;4137555;28;20244;-50
2023/01/15 05:20:46;;;;;;;0.40;0.40;;;;;;;6.48;100.00;97341.28;4152715;28;20240;-49
2023/01/15 05:22:48;;;;;;;0.63;0.63;;;;;;;6.46;100.00;97337.16;4154773;28;20220;-49
2023/01/15 05:24:50;;;;;;;0.70;0.70;;;;;;;6.50;100.00;97338.31;4140402;28;20244;-50
2023/01/15 05:26:52;;;;;;;0.40;0.40;;;;;;;6.53;100.00;97335.91;4152935;28;20738;-50
2023/01/15 05:28:55;;;;;;;0.70;0.70;;;;;;;6.43;100.00;97334.97;4145155;28;20746;-49
2023/01/15 05:30:57;;;;;;;0.40;0.40;;;;;;;6.59;100.00;97342.22;4155274;28;20267;-50
2023/01/15 05:32:59;;;;;;;0.60;0.60;;;;;;;6.68;100.00;97346.16;4152169;28;20718;-49
2023/01/15 05:35:01;;;;;;;0.63;0.63;;;;;;;6.66;100.00;97349.09;4137267;28;20284;-51
2023/01/15 05:37:02;;;;;;;0.80;0.80;;;;;;;6.61;100.00;97345.50;4137232;28;20214;-49
2023/01/15 05:39:04;;;;;;;0.68;0.68;;;;;;;6.50;100.00;97332.88;4135350;28;20210;-49
2023/01/15 05:43:28;;;;;;;0.60;0.60;;;;;;;6.53;100.00;97316.88;4136562;28;20337;-49
2023/01/15 05:45:34;;;;;;;0.95;0.95;;;;;;;6.50;100.00;97322.00;4137349;28;20812;-49
2023/01/15 05:47:36;;;;;;;0.63;0.63;;;;;;;6.50;100.00;97335.59;4137814;28;20587;-49
2023/01/15 05:49:37;;;;;;;0.70;0.70;;;;;;;6.58;100.00;97332.41;4139008;28;20661;-49
2023/01/15 05:51:40;;;;;;;0.60;0.60;;;;;;;6.70;100.00;97338.56;4138584;28;20733;-49
2023/01/15 05:53:41;;;;;;;0.60;0.60;;;;;;;6.64;100.00;97340.41;4138750;28;20210;-49
2023/01/15 05:55:43;;;;;;;0.70;0.70;;;;;;;6.55;100.00;97335.66;4136171;28;20296;-51
2023/01/15 05:57:45;;;;;;;0.70;0.70;;;;;;;6.41;100.00;97335.22;4154541;28;20224;-50
2023/01/15 05:59:49;;;;;;;0.50;0.50;;;;;;;6.40;100.00;97349.88;4140199;28;20292;-49
2023/01/15 06:01:51;;;;;;;0.75;0.75;;;;;;;6.30;100.00;97365.22;4151350;28;20229;-49
2023/01/15 06:03:54;;;;;;;0.80;0.80;;;;;;;6.32;100.00;97379.34;4133747;28;20294;-49
2023/01/15 06:05:56;;;;;;;0.68;0.68;;;;;;;6.20;100.00;97370.50;4136982;28;20217;-49
2023/01/15 06:07:58;;;;;;;0.63;0.63;;;;;;;6.27;100.00;97373.84;4139325;28;20698;-50
2023/01/15 06:10:01;;;;;;;0.47;0.47;;;;;;;6.29;100.00;97385.31;4137840;28;20257;-48
2023/01/15 06:12:03;;;;;;;0.60;0.60;;;;;;;6.36;100.00;97380.50;4138566;28;20225;-49
2023/01/15 06:14:06;;;;;;;2.35;0.70;;;;;;;6.36;100.00;97369.66;4121056;28;20506;-49
2023/01/15 06:16:12;;;;;;;0.60;0.60;;;;;;;6.38;100.00;97383.78;4136055;28;20271;-49
2023/01/15 06:18:13;;;;;;;0.70;0.70;;;;;;;6.39;100.00;97385.44;4136355;28;20244;-49
2023/01/15 06:20:15;;;;;;;0.50;0.50;;;;;;;6.28;100.00;97389.09;4135986;28;20212;-50
2023/01/15 06:22:17;;;;;;;0.70;0.70;;;;;;;6.10;100.00;97397.50;4151391;28;20260;-49
2023/01/15 06:24:19;;;;;;;0.55;0.55;;;;;;;6.27;100.00;97384.72;4122598;28;20273;-49
2023/01/15 06:26:21;;;;;;;0.75;0.75;;;;;;;6.15;100.00;97386.75;4135675;28;20213;-49
2023/01/15 06:28:23;;;;;;;0.63;0.63;;;;;;;6.14;100.00;97391.34;4136875;28;20288;-50
2023/01/15 06:30:25;;;;;;;0.57;0.57;;;;;;;6.13;100.00;97394.28;4133731;28;20251;-52
2023/01/15 06:32:27;;;;;;;0.50;0.50;;;;;;;5.94;100.00;97395.63;4138304;28;20312;-49
2023/01/15 06:34:28;;;;;;;0.57;0.57;;;;;;;5.96;100.00;97394.31;4136582;28;20206;-49
2023/01/15 06:36:30;;;;;;;0.63;0.63;;;;;;;5.94;100.00;97392.91;4136186;28;20241;-50
2023/01/15 06:38:32;;;;;;;0.90;0.90;;;;;;;5.85;100.00;97395.25;4122387;28;20210;-50
2023/01/15 06:40:45;;;;;;;1.00;1.00;;;;;;;5.81;100.00;97396.78;4137987;28;20295;-51
2023/01/15 06:47:41;;;;;;;0.60;0.60;;;;;;;5.86;100.00;97401.47;4135782;28;20233;-50
2023/01/15 06:49:42;;;;;;;0.75;0.75;;;;;;;5.68;100.00;97394.38;4124786;28;20217;-50
2023/01/15 06:51:44;;;;;;;0.55;0.55;;;;;;;5.74;100.00;97398.00;4123513;28;20277;-49
2023/01/15 06:53:46;;;;;;;0.80;0.80;;;;;;;5.60;100.00;97413.78;4136592;28;20323;-50
2023/01/15 06:55:48;;;;;;;0.40;0.40;;;;;;;5.62;100.00;97433.34;4136298;28;20260;-50
2023/01/15 06:57:50;;;;;;;0.57;0.57;;;;;;;5.71;100.00;97439.19;4136560;28;20845;-51
2023/01/15 06:59:51;;;;;;;0.75;0.75;;;;;;;5.70;100.00;97435.66;4135875;28;20213;-51
2023/01/15 07:01:53;;;;;;;0.88;0.88;;;;;;;5.71;100.00;97447.34;4133059;28;20237;-50
2023/01/15 07:03:55;;;;;;;1.85;0.60;;;;;;;5.64;100.00;97446.69;4136028;28;20245;-49
2023/01/15 07:05:57;;;;;;;0.50;0.50;;;;;;;5.69;100.00;97449.47;4136475;28;20579;-50
2023/01/15 07:07:59;;;;;;;1.58;0.70;;;;;;;5.63;100.00;97450.47;4135601;28;20251;-50
2023/01/15 07:10:01;;;;;;;0.60;0.60;;;;;;;5.63;100.00;97445.03;4122268;28;20241;-50
2023/01/15 07:12:03;;;;;;;0.70;0.70;;;;;;;5.63;100.00;97461.31;4135679;28;20711;-50
2023/01/15 07:14:04;;;;;;;0.77;0.77;;;;;;;5.72;100.00;97459.84;4134101;28;20237;-50
2023/01/15 07:16:25;;;;;;;0.70;0.70;;;;;;;5.61;100.00;97464.25;4120531;28;20264;-50
2023/01/15 07:18:29;;;;;;;0.57;0.57;;;;;;;5.56;100.00;97458.75;4148949;28;20714;-50
2023/01/15 07:20:30;;;;;;;0.70;0.70;;;;;;;5.63;100.00;97466.75;4150026;28;20642;-51
2023/01/15 07:22:32;;;;;;;0.80;0.80;;;;;;;5.52;100.00;97470.31;4136964;28;20726;-49
2023/01/15 07:24:34;;;;;;;0.60;0.60;;;;;;;5.46;100.00;97457.75;4137248;28;20596;-50
2023/01/15 07:26:37;;;;;;;0.80;0.80;;;;;;;5.51;100.00;97452.41;4120319;28;20259;-50
2023/01/15 07:28:38;;;;;;;0.70;0.70;;;;;;;5.44;100.00;97465.31;4134641;28;20783;-49
2023/01/15 07:30:40;;;;;;;0.63;0.63;;;;;;;5.41;100.00;97471.19;4135797;28;20208;-49
2023/01/15 07:32:42;;;;;;;0.70;0.70;;;;;;;5.61;100.00;97466.97;4134838;28;20233;-50
2023/01/15 07:34:44;;;;;;;0.43;0.43;;;;;;;5.38;100.00;97468.97;4138108;28;20214;-50
2023/01/15 07:36:45;;;;;;;0.68;0.68;;;;;;;5.30;100.00;97462.06;4137485;28;20209;-50
2023/01/15 07:38:47;;;;;;;0.85;0.85;;;;;;;5.43;100.00;97471.81;4136230;28;20241;-50
2023/01/15 07:49:44;;;;;;;1.40;1.30;;;;;;;5.37;100.00;97475.47;4134381;28;20622;-49
2023/01/15 07:49:44;;;;;;;0.70;0.70;;;;;;;5.39;100.00;97471.47;4135330;28;20237;-49
2023/01/15 07:50:29;;;;;;;0.98;0.98;;;;;;;5.37;100.00;97483.63;4133238;28;20213;-50
2023/01/15 07:52:31;;;;;;;0.90;0.90;;;;;;;5.29;100.00;97481.31;4121975;28;20226;-49
2023/01/15 07:54:33;;;;;;;0.77;0.77;;;;;;;5.30;100.00;97491.06;4138295;28;20699;-50
2023/01/15 07:56:35;;;;;;;0.75;0.75;;;;;;;5.22;100.00;97483.34;4122648;28;20238;-50
2023/01/15 07:58:39;;;;;;;0.90;0.90;;;;;;;5.24;100.00;97483.91;4136112;28;20256;-50
2023/01/15 08:00:41;;;;;;;0.70;0.70;;;;;;;5.36;100.00;97490.91;4136560;28;20263;-49
2023/01/15 08:02:44;;;;;;;1.05;0.98;;;;;;;5.24;100.00;97500.19;4147338;28;20734;-48
2023/01/15 08:04:49;;;;;;;0.60;0.60;;;;;;;5.01;100.00;97489.38;4150756;28;20213;-55
2023/01/15 08:07:01;;;;;;;1.77;1.10;;;;;;;5.09;100.00;97495.25;4135967;28;20284;-45
2023/01/15 08:09:10;;;;;;;0.70;0.70;;;;;;;5.15;100.00;97496.22;4137159;28;20202;-45
2023/01/15 08:15:56;;;;;;;0.65;0.65;;;;;;;5.15;100.00;97507.06;4135831;28;20280;-47
2023/01/15 08:17:58;;;;;;;0.65;0.65;;;;;;;5.18;100.00;97512.81;4122871;28;20281;-46
2023/01/15 08:20:00;;;;;;;0.73;0.73;;;;;;;5.20;100.00;97516.09;4135339;28;20263;-46
2023/01/15 08:22:02;;;;;;;2.20;1.05;;;;;;;5.23;100.00;97520.22;4134951;28;20670;-46
2023/01/15 08:24:04;;;;;;;0.52;0.52;;;;;;;5.19;100.00;97532.59;4138848;28;20666;-46
2023/01/15 08:26:06;;;;;;;1.13;1.00;;;;;;;5.22;100.00;97524.00;4139136;28;20320;-45
2023/01/15 08:28:07;;;;;;;0.80;0.80;;;;;;;5.17;100.00;97521.19;4142537;28;20244;-46
2023/01/15 08:30:15;;;;;;;0.68;0.68;;;;;;;5.14;100.00;97537.91;4141008;28;20769;-45
2023/01/15 08:32:17;;;;;;;0.60;0.60;;;;;;;5.15;100.00;97528.75;4157195;28;20216;-46
2023/01/15 08:34:19;;;;;;;4.78;0.80;;;;;;;5.26;100.00;97534.13;4140228;28;20213;-45
2023/01/15 08:36:20;;;;;;;0.90;0.90;;;;;;;5.27;100.00;97537.66;4141371;28;20296;-46
2023/01/15 08:38:22;;;;;;;0.68;0.68;;;;;;;5.23;100.00;97536.50;4140202;28;20929;-46
2023/01/15 08:40:24;;;;;;;0.90;0.88;;;;;;;5.27;100.00;97532.22;4138478;28;20220;-45
2023/01/15 08:42:26;;;;;;;0.98;0.77;;;;;;;5.27;100.00;97532.22;4138049;28;20628;-46
2023/01/15 08:44:27;;;;;;;1.08;0.98;;;;;;;5.27;100.00;97538.47;4138832;28;20277;-46
2023/01/15 08:46:29;;;;;;;1.08;1.08;;;;;;;5.26;100.00;97536.84;4135148;28;20300;-46
2023/01/15 08:48:32;;;;;;;3.83;1.02;;;;;;;5.31;100.00;97546.97;4139479;28;20237;-47
2023/01/15 08:50:34;;;;;;;4.43;1.05;;;;;;;5.35;100.00;97540.81;4142553;28;20205;-46
2023/01/15 08:52:37;;;;;;;1.00;0.90;;;;;;;5.36;100.00;97544.34;4140400;28;20240;-46
2023/01/15 08:54:38;;;;;;;1.95;1.38;;;;;;;5.37;100.00;97548.72;4143881;28;20217;-46
2023/01/15 08:56:43;;;;;;;1.20;1.17;;;;;;;5.35;100.00;97567.13;4140573;28;20201;-46
2023/01/15 08:58:46;;;;;;;3.15;1.23;;;;;;;5.34;100.00;97560.84;4140316;28;20300;-46
2023/01/15 09:00:47;;;;;;;2.42;1.05;;;;;;;5.36;100.00;97566.06;4141423;28;20856;-47
2023/01/15 09:02:50;;;;;;;1.35;1.17;;;;;;;5.38;100.00;97572.06;4133509;28;20213;-47
2023/01/15 09:04:51;;;;;;;1.48;1.20;;;;;;;5.49;100.00;97574.72;4153004;28;20218;-47
2023/01/15 09:06:53;;;;;;;1.75;1.17;;;;;;;5.36;100.00;97576.91;4140260;28;20695;-47
2023/01/15 09:08:55;;;;;;;1.33;1.10;;;;;;;5.33;100.00;97571.94;4139462;28;22340;-47
2023/01/15 09:11:00;;;;;;;0.98;0.98;;;;;;;5.27;100.00;97576.44;4142632;28;20209;-46
2023/01/15 09:13:03;;;;;;;1.30;1.15;;;;;;;5.30;100.00;97578.66;4139490;28;20244;-47
2023/01/15 09:15:05;;;;;;;1.33;0.98;;;;;;;5.18;100.00;97572.47;4136370;28;20206;-46
2023/01/15 09:17:07;;;;;;;1.05;1.05;;;;;;;5.27;100.00;97594.59;4141060;28;20244;-47
2023/01/15 09:19:09;;;;;;;1.30;1.20;;;;;;;5.24;100.00;97587.75;4150846;28;20653;-47
2023/01/15 09:21:11;;;;;;;0.63;0.63;;;;;;;5.33;100.00;97580.06;4150914;28;20279;-47
2023/01/15 09:23:13;;;;;;;0.98;0.98;;;;;;;5.29;100.00;97597.91;4134149;28;20308;-47
2023/01/15 09:25:15;;;;;;;1.85;0.90;;;;;;;5.39;100.00;97600.81;4139661;28;20716;-47
2023/01/15 09:27:17;;;;;;;1.20;1.08;;;;;;;5.36;100.00;97598.59;4142165;28;20284;-47
2023/01/15 09:29:19;;;;;;;0.93;0.93;;;;;;;5.35;100.00;97599.66;4139533;28;20255;-47
2023/01/15 09:31:22;;;;;;;1.27;1.17;;;;;;;5.32;100.00;97617.25;4137465;28;20226;-47
2023/01/15 09:33:24;;;;;;;1.30;1.15;;;;;;;5.32;100.00;97613.69;4151994;28;20625;-46
2023/01/15 09:35:25;;;;;;;1.77;0.90;;;;;;;5.29;100.00;97615.00;4140220;28;20241;-46
2023/01/15 09:37:27;;;;;;;0.90;0.90;;;;;;;5.36;100.00;97620.28;4136464;28;20241;-46
2023/01/15 09:39:29;;;;;;;0.73;0.73;;;;;;;5.29;100.00;97623.13;4125393;28;20337;-46
2023/01/15 09:42:06;;;;;;;1.98;1.60;;;;;;;5.30;100.00;97624.75;4138596;28;20233;-46
2023/01/15 09:44:35;;;;;;;1.75;1.08;;;;;;;5.42;100.00;97631.00;4137357;28;20268;-46
2023/01/15 09:47:10;;;;;;;1.20;1.20;;;;;;;5.44;100.00;97633.47;4121931;28;20244;-47
2023/01/15 09:49:31;;;;;;;0.70;0.70;;;;;;;5.33;100.00;97635.16;4138369;28;20825;-46
2023/01/15 09:51:42;;;;;;;0.65;0.65;;;;;;;5.37;100.00;97640.94;4139102;28;20292;-46
2023/01/15 09:54:21;;;;;;;1.05;0.95;;;;;;;5.35;100.00;97643.06;4135946;28;20244;-46
2023/01/15 09:56:28;;;;;;;0.88;0.88;;;;;;;5.41;100.00;97658.34;4150140;28;20209;-46
2023/01/15 09:58:36;;;;;;;0.73;0.73;;;;;;;5.36;100.00;97652.84;4135836;28;20206;-47
2023/01/15 10:00:43;;;;;;;1.58;0.80;;;;;;;5.35;100.00;97664.75;4138500;28;20699;-47
2023/01/15 10:02:57;;;;;;;0.80;0.80;;;;;;;5.40;100.00;97668.41;4137828;28;20233;-46
2023/01/15 10:05:11;;;;;;;0.73;0.73;;;;;;;5.39;100.00;97676.75;4136783;28;20201;-47
2023/01/15 10:07:33;;;;;;;0.88;0.88;;;;;;;5.36;100.00;97667.22;4138560;28;20248;-47
2023/01/15 10:09:38;;;;;;;1.00;1.00;;;;;;;5.33;100.00;97683.13;4132496;28;20237;-46
2023/01/15 10:14:09;;;;;;;0.77;0.77;;;;;;;5.31;100.00;97685.28;4138321;28;20229;-46